Latest Weather Observations for Kuitpo

IDS60801

Issued at 11:01 pm CST Wednesday 26 April 2017 (issued every 30 minutes, with the page automatically refreshed every 10 minutes)

About weather observations | Map of weather stations | Latest weather observations for SA | Other Formats
Station Details ID: 023887 Name: KUITPO FOREST RESERVE Lat: -35.17 Lon: 138.68 Height: 365.0 m
Data from the previous 72 hours. | See also: Recent months at Kuitpo
Date/Time
CST
Temp
°C
App
Temp
°C
Dew
Point
°C
Rel
Hum
%
Delta-T
°C
Wind Press
QNH
hPa
Press
MSL
hPa
Rain since
9am
mm
Dir  Spd
km/h
Gust
km/h
Spd
kts
Gust
kts
26/11:00pm 8.7 5.3 6.0 83 1.3 SSW 13 19 7 10 1024.2 1023.7 0.2
26/10:30pm 8.6 4.9 6.1 84 1.2 SSW 15 24 8 13 1024.3 1023.8 0.2
26/10:00pm 8.7 5.9 5.3 79 1.6 SSW 9 11 5 6 1024.2 1023.7 0.2
26/09:30pm 9.2 5.6 5.0 75 1.9 SSW 13 19 7 10 1024.1 1023.6 0.2
26/09:00pm 8.8 5.5 4.8 76 1.8 SW 11 17 6 9 1023.8 1023.2 0.2
26/08:30pm 8.7 4.9 3.9 72 2.1 SSW 13 19 7 10 1023.7 1023.1 0.2
26/08:00pm 8.7 4.9 3.9 72 2.1 SSW 13 22 7 12 1023.5 1022.9 0.2
26/07:30pm 8.1 4.0 4.1 76 1.8 SW 15 24 8 13 1023.3 1022.7 0.2
26/07:00pm 8.3 4.6 4.7 78 1.6 SSW 13 20 7 11 1023.1 1022.5 0.2
26/06:30pm 8.8 5.2 5.0 77 1.7 SSW 13 20 7 11 1022.7 1022.1 0.2
26/06:00pm 9.0 5.4 5.0 76 1.8 S 13 17 7 9 1022.4 1021.8 0.2
26/05:30pm 9.5 5.8 4.7 72 2.2 SSW 13 20 7 11 1022.3 1021.7 0.2
26/05:00pm 9.6 6.3 4.8 72 2.2 SSW 11 17 6 9 1022.0 1021.4 0.2
26/04:30pm 10.0 6.8 5.2 72 2.2 SSW 11 19 6 10 1021.8 1021.3 0.2
26/04:00pm 10.1 6.6 5.3 72 2.2 SSE 13 22 7 12 1021.7 1021.2 0.2
26/03:30pm 9.9 6.5 5.7 75 2.0 S 13 20 7 11 1021.6 1021.1 0.2
26/03:00pm 10.6 5.8 5.4 70 2.4 SSW 20 32 11 17 1021.1 1020.5 0.2
26/02:30pm 9.7 4.2 5.7 76 1.9 SSW 24 41 13 22 1021.0 1020.4 0.2
26/02:00pm 9.8 5.7 6.3 79 1.7 SSW 17 32 9 17 1020.8 1020.2 0.2
26/01:30pm 11.8 6.8 4.8 62 3.2 SSW 20 39 11 21 1020.4 1019.8 0.2
26/01:00pm 11.9 8.3 6.6 70 2.6 S 15 35 8 19 1020.3 1019.7 0.2
26/12:30pm 11.1 7.5 6.6 74 2.2 S 15 33 8 18 1020.3 1019.7 0.2
26/12:00pm 10.6 6.6 6.7 77 1.9 S 17 33 9 18 1020.6 1020.0 0.2
26/11:30am 11.2 6.4 5.5 68 2.7 S 20 32 11 17 1020.3 1019.7 0.0
26/11:00am 9.7 4.5 5.5 75 2.0 SSW 22 43 12 23 1020.2 1019.6 0.0
26/10:30am 9.6 5.0 5.6 76 1.9 S 19 32 10 17 1020.0 1019.4 0.0
26/10:00am 8.3 3.2 5.8 84 1.2 SSW 22 39 12 21 1019.8 1019.2 0.0
26/09:30am 9.2 4.4 4.8 74 2.0 SSW 19 35 10 19 1019.4 1018.8 0.0
26/09:00am 9.1 4.5 5.7 79 1.6 SSW 19 30 10 16 1018.8 1018.2 14.6
26/08:30am 8.2 2.4 4.6 78 1.6 SSW 24 39 13 21 1018.5 1017.9 14.2
26/08:00am 7.3 1.9 4.4 82 1.3 SSW 22 43 12 23 1017.9 1017.3 14.2
26/07:30am 7.3 2.7 3.7 78 1.6 SSW 17 26 9 14 1017.1 1016.5 14.2
26/07:00am 7.3 1.7 3.5 77 1.7 SSW 22 35 12 19 1016.6 1015.9 14.2
26/06:30am 7.1 2.0 3.3 77 1.6 SW 19 30 10 16 1016.3 1015.6 14.2
26/06:00am 6.8 1.8 3.4 79 1.5 SW 19 30 10 16 1015.8 1015.2 14.2
26/05:30am 6.8 1.3 3.8 81 1.3 SSW 22 39 12 21 1015.4 1014.8 14.2
26/05:00am 7.0 1.3 3.1 76 1.7 SW 22 37 12 20 1014.7 1014.1 14.0
26/04:30am 7.1 1.3 4.2 82 1.3 SW 24 41 13 22 1014.4 1013.7 14.0
26/04:09am 7.6 1.0 4.2 79 1.5 SSW 28 46 15 25 1014.3 1013.6 14.0
26/04:00am 7.9 1.9 3.4 73 2.0 SW 24 39 13 21 1014.1 1013.4 14.0
26/03:30am 8.2 3.3 5.3 82 1.3 SW 20 33 11 18 1013.5 1012.8 14.0
26/03:00am 8.4 3.3 5.9 84 1.2 SW 22 35 12 19 1013.4 1012.7 14.0
26/02:30am 8.5 3.0 6.1 85 1.1 SW 24 41 13 22 1013.0 1012.4 14.0
26/02:00am 8.6 2.3 5.7 82 1.3 SW 28 50 15 27 1012.7 1012.1 14.0
26/01:30am 9.2 2.2 6.1 81 1.5 SW 32 59 17 32 1012.2 1011.6 14.0
26/01:25am 9.6 3.4 6.0 78 1.7 SW 28 59 15 32 1012.0 1011.3 14.0
26/01:00am 9.6 3.9 6.9 83 1.3 SW 26 43 14 23 1011.9 1011.2 14.0
26/12:30am 10.0 4.4 7.1 82 1.4 SW 26 46 14 25 1011.5 1010.8 14.0
26/12:00am 10.0 4.2 7.8 86 1.1 SW 28 46 15 25 1011.4 1010.7 14.0
 
Date/Time
CST
Temp
°C
App
Temp
°C
Dew
Point
°C
Rel
Hum
%
Delta-T
°C
Wind Press
QNH
hPa
Press
MSL
hPa
Rain since
9am
mm
Dir  Spd
km/h
Gust
km/h
Spd
kts
Gust
kts
25/11:30pm 10.0 4.6 9.5 97 0.3 SW 28 52 15 28 1011.3 1010.6 13.8
25/11:00pm 10.7 5.5 10.2 97 0.3 SW 28 56 15 30 1011.0 1010.3 13.8
25/10:42pm 11.2 6.2 10.9 98 0.2 WSW 28 56 15 30 1010.5 1009.8 13.8
25/10:30pm 10.8 7.7 10.3 97 0.3 WSW 17 28 9 15 1010.8 1010.1 13.2
25/10:03pm 10.7 5.5 10.2 97 0.3 WSW 28 50 15 27 1010.9 1010.2 12.0
25/10:00pm 10.9 5.7 10.4 97 0.3 W 28 50 15 27 1010.8 1010.1 12.0
25/09:59pm 11.2 6.1 10.7 97 0.3 W 28 50 15 27 1010.8 1010.1 12.0
25/09:30pm 11.2 6.5 10.6 96 0.3 W 26 43 14 23 1011.0 1010.3 11.0
25/09:13pm 11.8 6.5 10.0 89 0.9 W 28 52 15 28 1011.2 1010.5 5.8
25/09:00pm 12.8 8.9 9.4 80 1.8 W 20 35 11 19 1010.9 1010.2 3.8
25/08:30pm 12.3 7.8 8.4 77 2.0 W 22 33 12 18 1011.0 1010.3 3.8
25/08:00pm 12.1 7.6 8.4 78 1.9 WSW 22 41 12 22 1011.1 1010.4 3.8
25/07:30pm 12.0 6.4 8.7 80 1.7 WSW 28 48 15 26 1011.1 1010.4 3.8
25/07:19pm 11.8 6.4 9.5 86 1.2 WSW 28 46 15 25 1011.0 1010.3 3.8
25/07:00pm 11.8 7.3 11.3 97 0.3 WSW 26 43 14 23 1011.0 1010.3 3.8
25/06:30pm 12.1 8.4 11.6 97 0.3 W 22 33 12 18 1010.8 1010.1 3.2
25/06:00pm 11.9 10.6 11.4 97 0.3 WNW 9 15 5 8 1010.8 1010.1 2.6
25/05:30pm 11.7 8.8 11.1 96 0.3 WSW 17 24 9 13 1010.9 1010.2 1.8
25/05:00pm 12.6 8.2 11.7 94 0.5 W 26 39 14 21 1010.7 1010.0 1.6
25/04:30pm 13.0 10.5 12.4 96 0.3 WSW 17 26 9 14 1010.8 1010.1 1.2
25/04:00pm 13.2 9.1 12.6 96 0.3 WSW 26 37 14 20 1010.8 1010.1 1.2
25/03:30pm 13.7 10.2 12.1 90 0.9 WSW 22 44 12 24 1010.5 1009.8 1.2
25/03:00pm 15.5 12.3 11.1 75 2.4 W 19 33 10 18 1010.6 1009.9 0.0
25/02:30pm 15.9 12.3 10.0 68 3.2 WSW 19 33 10 18 1010.6 1009.9 0.0
25/02:00pm 16.2 12.8 10.5 69 3.1 WSW 19 32 10 17 1010.8 1010.1 0.0
25/01:30pm 16.0 12.4 10.5 70 3.0 W 20 33 11 18 1011.2 1010.5 0.0
25/01:00pm 16.1 12.7 11.1 72 2.7 W 20 30 11 16 1011.6 1010.9 0.0
25/12:30pm 15.9 12.9 11.9 77 2.2 WSW 19 30 10 16 1011.9 1011.2 0.0
25/12:00pm 16.3 13.4 12.8 80 2.0 WSW 20 33 11 18 1012.1 1011.5 0.0
25/11:30am 16.0 12.7 12.7 81 1.9 WSW 22 33 12 18 1012.4 1011.8 0.0
25/11:00am 15.3 12.3 12.6 84 1.5 WSW 20 37 11 20 1012.6 1012.0 0.0
25/10:30am 14.9 12.8 13.6 92 0.7 WSW 17 28 9 15 1012.9 1012.3 0.0
25/10:00am 14.8 12.0 13.2 90 0.9 WSW 20 39 11 21 1012.9 1012.3 0.0
25/09:30am 14.9 13.1 13.4 91 0.9 WSW 15 22 8 12 1012.9 1012.3 0.0
25/09:00am 14.6 13.2 13.3 92 0.7 WSW 13 20 7 11 1013.0 1012.4 1.2
25/08:30am 13.5 12.2 12.6 94 0.5 WSW 11 17 6 9 1013.0 1012.4 1.2
25/08:00am 13.0 11.6 12.1 94 0.5 WSW 11 15 6 8 1012.7 1012.1 1.2
25/07:30am 12.6 9.9 11.8 95 0.4 WSW 17 24 9 13 1012.3 1011.7 1.2
25/07:00am 12.1 10.1 11.5 96 0.3 WSW 13 19 7 10 1011.9 1011.2 1.2
25/06:30am 12.1 9.4 11.6 97 0.3 WSW 17 24 9 13 1011.5 1010.8 1.2
25/06:00am 12.5 9.9 12.0 97 0.3 WSW 17 24 9 13 1011.1 1010.4 1.2
25/05:30am 12.5 9.9 12.0 97 0.3 WSW 17 22 9 12 1011.0 1010.3 1.2
25/05:00am 12.3 9.6 11.8 97 0.3 W 17 30 9 16 1010.9 1010.2 1.2
25/04:30am 12.9 10.5 12.6 98 0.2 W 17 32 9 17 1010.6 1009.9 1.2
25/04:00am 13.6 10.8 13.3 98 0.2 WNW 20 35 11 19 1010.5 1009.8 1.0
25/03:30am 13.2 11.3 12.9 98 0.2 W 15 24 8 13 1010.6 1009.9 0.8
25/03:00am 13.1 11.5 12.9 99 0.1 W 13 20 7 11 1010.7 1010.0 0.8
25/02:30am 13.0 11.8 12.8 99 0.1 WSW 11 20 6 11 1011.1 1010.4 0.8
25/02:00am 13.2 10.5 13.0 99 0.1 WSW 19 30 10 16 1011.3 1010.6 0.8
25/01:30am 13.9 11.8 13.7 99 0.1 WSW 17 32 9 17 1011.2 1010.5 0.8
25/01:00am 14.4 12.1 14.2 99 0.1 WSW 19 30 10 16 1011.1 1010.4 0.8
25/12:30am 14.4 11.6 14.2 99 0.1 WSW 22 35 12 19 1011.3 1010.6 0.8
25/12:00am 14.8 11.7 14.5 98 0.2 WSW 24 33 13 18 1011.4 1010.7 0.8
 
Date/Time
CST
Temp
°C
App
Temp
°C
Dew
Point
°C
Rel
Hum
%
Delta-T
°C
Wind Press
QNH
hPa
Press
MSL
hPa
Rain since
9am
mm
Dir  Spd
km/h
Gust
km/h
Spd
kts
Gust
kts
24/11:30pm 14.9 13.9 14.6 98 0.2 NW 13 17 7 9 1011.3 1010.6 0.6
24/11:00pm 15.0 14.0 14.7 98 0.2 W 13 20 7 11 1011.7 1011.0 0.4
24/10:30pm 15.3 13.6 14.8 97 0.3 W 17 28 9 15 1011.9 1011.2 0.4
24/10:00pm 15.3 14.0 14.8 97 0.3 NW 15 24 8 13 1012.0 1011.3 0.4
24/09:30pm 15.4 14.1 14.9 97 0.3 NW 15 24 8 13 1012.2 1011.6 0.4
24/09:00pm 15.4 14.2 15.1 98 0.2 NW 15 22 8 12 1012.4 1011.8 0.4
24/08:30pm 15.3 13.7 15.0 98 0.2 NW 17 24 9 13 1012.5 1011.9 0.4
24/08:00pm 15.3 13.6 14.8 97 0.3 NW 17 28 9 15 1012.5 1011.9 0.4
24/07:30pm 15.5 14.6 14.9 96 0.4 NW 13 20 7 11 1012.7 1012.1 0.4
24/07:00pm 15.9 14.8 15.3 96 0.4 NW 15 20 8 11 1012.7 1012.1 0.4
24/06:30pm 16.0 14.9 15.2 95 0.5 WNW 15 24 8 13 1012.6 1012.0 0.4
24/06:00pm 16.0 14.5 15.2 95 0.5 WNW 17 32 9 17 1012.5 1011.9 0.4
24/05:30pm 15.9 14.0 15.3 96 0.4 W 19 28 10 15 1012.2 1011.6 0.4
24/05:00pm 16.1 14.7 15.5 96 0.4 WNW 17 28 9 15 1012.1 1011.5 0.4
24/04:30pm 16.3 14.3 15.5 95 0.5 NW 20 37 11 20 1012.3 1011.7 0.4
24/04:00pm 16.4 15.3 15.4 94 0.6 WNW 15 32 8 17 1012.4 1011.8 0.4
24/03:30pm 16.7 14.8 15.2 91 0.9 NW 19 28 10 15 1012.8 1012.2 0.0
24/03:00pm 16.6 14.8 15.6 94 0.6 WNW 19 30 10 16 1012.9 1012.3 0.0
24/02:30pm 16.8 16.3 15.8 94 0.6 NW 13 24 7 13 1012.7 1012.1 0.0
24/02:00pm 16.8 16.2 15.7 93 0.7 NW 13 24 7 13 1012.9 1012.3 0.0
24/01:30pm 17.0 16.3 15.5 91 0.9 NW 13 20 7 11 1013.1 1012.5 0.0
24/01:00pm 16.8 15.8 15.5 92 0.8 NW 15 24 8 13 1013.8 1013.1 0.0
24/12:30pm 17.1 16.4 15.4 90 1.0 NNW 13 20 7 11 1014.4 1013.7 0.0
24/12:00pm 16.9 15.8 15.2 90 1.0 NNW 15 24 8 13 1015.2 1014.6 0.0
24/11:30am 17.0 15.9 15.3 90 1.0 NNW 15 20 8 11 1015.4 1014.8 0.0
24/11:00am 16.5 17.2 16.0 97 0.3 N 7 11 4 6 1015.7 1015.1 0.0
24/10:30am 15.6 15.6 15.3 98 0.2 NNE 9 13 5 7 1015.9 1015.3 0.0
24/10:00am 15.0 14.8 14.7 98 0.2 NE 9 11 5 6 1016.3 1015.6 0.0
24/09:30am 14.7 14.4 14.5 99 0.1 NE 9 13 5 7 1016.5 1015.8 0.0
24/09:00am 14.4 13.3 14.2 99 0.1 NE 13 19 7 10 1016.8 1016.1 3.0
24/08:30am 14.1 13.3 13.9 99 0.1 E 11 15 6 8 1017.0 1016.4 3.0
24/08:00am 13.6 11.8 13.4 99 0.1 E 15 17 8 9 1017.0 1016.4 3.0
24/07:30am 13.4 11.6 13.2 99 0.1 ESE 15 19 8 10 1016.9 1016.3 3.0
24/07:00am 13.2 11.6 12.9 98 0.2 ESE 13 17 7 9 1016.9 1016.3 3.0
24/06:30am 13.1 10.4 12.8 98 0.2 ESE 19 22 10 12 1016.8 1016.1 3.0
24/06:00am 13.1 10.7 12.8 98 0.2 E 17 20 9 11 1016.8 1016.1 3.0
24/05:30am 13.4 11.8 12.9 97 0.3 ESE 13 17 7 9 1017.2 1016.6 3.0
24/05:00am 13.6 11.3 13.1 97 0.3 ESE 17 22 9 12 1017.2 1016.6 3.0
24/04:30am 13.7 11.5 13.2 97 0.3 ESE 17 20 9 11 1017.3 1016.7 3.0
24/04:00am 13.6 12.8 13.0 96 0.3 ESE 9 13 5 7 1017.5 1016.9 3.0
24/03:30am 13.6 11.2 12.8 95 0.4 E 17 20 9 11 1017.6 1017.0 2.8
24/03:00am 13.7 11.0 12.8 94 0.5 E 19 26 10 14 1018.1 1017.5 2.2
24/02:30am 13.9 11.1 12.6 92 0.7 ESE 19 22 10 12 1018.3 1017.7 2.2
24/02:00am 13.9 11.5 12.8 93 0.6 E 17 20 9 11 1018.7 1018.1 2.2
24/01:30am 14.2 12.5 12.6 90 0.9 ESE 13 15 7 8 1019.5 1018.9 1.6
24/01:00am 14.4 11.6 12.6 89 1.0 ESE 19 24 10 13 1019.6 1019.0 0.6
24/12:30am 15.2 12.6 12.0 81 1.8 E 17 28 9 15 1019.8 1019.2 0.4
24/12:00am 16.4 14.4 11.6 73 2.6 ENE 13 20 7 11 1020.0 1019.4 0.2
 
Date/Time
CST
Temp
°C
App
Temp
°C
Dew
Point
°C
Rel
Hum
%
Delta-T
°C
Wind Press
QNH
hPa
Press
MSL
hPa
Rain since
9am
mm
Dir  Spd
km/h
Gust
km/h
Spd
kts
Gust
kts
23/11:30pm 16.7 13.5 11.4 71 2.9 E 19 26 10 14 1020.0 1019.4 0.2

Other Formats:

Comma delimited format used in spreadsheet applications
http://www.bom.gov.au/fwo/IDS60801/IDS60801.94683.axf

JavaScript Object Notation format (JSON) in row-major order
http://www.bom.gov.au/fwo/IDS60801/IDS60801.94683.json